createdAt,value
2023-04-01T00:00:37.108Z,8.90
2023-04-01T00:03:05.239Z,10.70
2023-04-01T00:05:33.420Z,11.45
2023-04-01T00:08:01.878Z,11.80
2023-04-01T00:10:29.854Z,13.17
2023-04-01T00:12:57.769Z,9.53
2023-04-01T00:15:25.713Z,13.38
2023-04-01T00:17:55.402Z,12.50
2023-04-01T00:20:23.665Z,11.03
2023-04-01T00:22:53.020Z,8.57
2023-04-01T00:25:21.113Z,11.55
2023-04-01T00:27:49.113Z,10.63
2023-04-01T00:30:17.417Z,9.80
2023-04-01T00:32:45.681Z,14.47
2023-04-01T00:35:15.030Z,11.63
2023-04-01T00:37:42.922Z,12.97
2023-04-01T00:40:25.726Z,13.93
2023-04-01T00:42:53.701Z,11.40
2023-04-01T00:45:32.438Z,10.00
2023-04-01T00:48:04.048Z,10.47
2023-04-01T00:50:35.360Z,11.93
2023-04-01T00:53:04.282Z,12.43
2023-04-01T00:55:36.288Z,11.50
2023-04-01T00:58:07.849Z,9.93
2023-04-01T01:00:38.077Z,8.07
2023-04-01T01:03:06.209Z,9.10
2023-04-01T01:05:49.906Z,9.10
2023-04-01T01:08:25.303Z,10.53
2023-04-01T01:10:53.260Z,9.97
2023-04-01T01:13:28.181Z,8.10
2023-04-01T01:16:00.916Z,10.90
2023-04-01T01:18:37.154Z,8.97
2023-04-01T01:21:49.590Z,6.97
2023-04-01T01:24:32.514Z,6.43
2023-04-01T01:27:06.555Z,7.87
2023-04-01T01:30:16.552Z,8.77
2023-04-01T01:32:59.288Z,8.37
2023-04-01T01:35:33.053Z,6.00
2023-04-01T01:38:05.774Z,7.97
2023-04-01T01:40:36.718Z,5.73
2023-04-01T01:43:14.869Z,9.33
2023-04-01T01:45:48.108Z,6.80
2023-04-01T01:48:18.985Z,5.07
2023-04-01T01:50:50.601Z,6.97
2023-04-01T01:53:18.707Z,8.57
2023-04-01T01:55:48.338Z,7.50
2023-04-01T01:58:19.752Z,7.90
2023-04-01T02:00:52.374Z,5.73
2023-04-01T02:03:23.681Z,6.60
2023-04-01T02:05:55.978Z,8.23
2023-04-01T02:08:28.692Z,6.07
2023-04-01T02:11:00.433Z,5.77
2023-04-01T02:13:34.390Z,4.95
2023-04-01T02:16:08.522Z,4.90
2023-04-01T02:18:38.421Z,7.17
2023-04-01T02:21:09.316Z,5.83
2023-04-01T02:23:38.802Z,4.23
2023-04-01T02:26:09.097Z,6.27
2023-04-01T02:28:41.270Z,7.73
2023-04-01T02:31:11.287Z,5.77
2023-04-01T02:33:41.111Z,5.17
2023-04-01T02:36:15.146Z,6.17
2023-04-01T02:38:44.968Z,5.85
2023-04-01T02:41:13.120Z,7.30
2023-04-01T02:43:41.062Z,5.13
2023-04-01T02:46:09.153Z,4.43
2023-04-01T02:48:37.233Z,5.80
2023-04-01T02:51:05.465Z,7.55
2023-04-01T02:53:34.789Z,5.00
2023-04-01T02:56:02.732Z,4.65
2023-04-01T02:58:30.913Z,4.60
2023-04-01T03:00:58.925Z,6.45
2023-04-01T03:03:27.098Z,9.60
2023-04-01T03:05:56.973Z,5.82
2023-04-01T03:08:24.938Z,7.57
2023-04-01T03:10:54.221Z,6.90
2023-04-01T03:13:22.267Z,9.10
2023-04-01T03:15:50.346Z,11.23
2023-04-01T03:18:18.247Z,6.97
2023-04-01T03:20:46.140Z,8.10
2023-04-01T03:23:14.499Z,7.65
2023-04-01T03:25:42.411Z,9.20
2023-04-01T03:28:11.746Z,11.33
2023-04-01T03:30:39.694Z,7.18
2023-04-01T03:33:07.719Z,9.03
2023-04-01T03:35:37.043Z,8.60
2023-04-01T03:38:05.167Z,8.60
2023-04-01T03:40:34.099Z,9.93
2023-04-01T03:43:02.112Z,8.17
2023-04-01T03:45:31.607Z,9.03
2023-04-01T03:47:59.734Z,11.57
2023-04-01T03:50:28.125Z,7.30
2023-04-01T03:52:56.694Z,7.28
2023-04-01T03:55:25.085Z,6.68
2023-04-01T03:57:52.989Z,10.27
2023-04-01T04:00:21.637Z,7.65
2023-04-01T04:02:51.428Z,7.28
2023-04-01T04:05:19.406Z,7.47
2023-04-01T04:07:47.285Z,7.57
2023-04-01T04:10:15.481Z,10.48
2023-04-01T04:12:43.401Z,11.07
2023-04-01T04:15:12.107Z,9.57
2023-04-01T04:17:40.652Z,10.40
2023-04-01T04:20:11.245Z,10.60
2023-04-01T04:22:39.245Z,7.80
2023-04-01T04:25:07.984Z,8.40
2023-04-01T04:27:36.199Z,10.57
2023-04-01T04:30:04.957Z,6.38
2023-04-01T04:32:32.852Z,8.57
2023-04-01T04:35:00.784Z,7.83
2023-04-01T04:37:30.232Z,8.43
2023-04-01T04:39:58.163Z,6.40
2023-04-01T04:42:26.173Z,5.72
2023-04-01T04:44:54.110Z,6.28
2023-04-01T04:47:22.046Z,8.43
2023-04-01T04:49:50.036Z,7.13
2023-04-01T04:52:18.019Z,5.57
2023-04-01T04:54:47.250Z,6.32
2023-04-01T04:57:15.463Z,5.13
2023-04-01T04:59:43.441Z,6.43
2023-04-01T05:02:11.674Z,8.77
2023-04-01T05:04:39.689Z,5.87
2023-04-01T05:07:07.761Z,9.43
2023-04-01T05:09:35.818Z,7.70
2023-04-01T05:12:05.336Z,6.00
2023-04-01T05:14:33.326Z,9.83
2023-04-01T05:17:01.242Z,7.40
2023-04-01T05:19:29.131Z,6.87
2023-04-01T05:21:57.066Z,6.27
2023-04-01T05:24:25.047Z,9.97
2023-04-01T05:26:53.873Z,6.73
2023-04-01T05:29:24.569Z,6.90
2023-04-01T05:31:52.613Z,4.53
2023-04-01T05:34:20.578Z,5.00
2023-04-01T05:36:48.617Z,4.33
2023-04-01T05:39:16.757Z,7.87
2023-04-01T05:41:44.665Z,7.47
2023-04-01T05:44:13.901Z,6.40
2023-04-01T05:46:43.658Z,8.40
2023-04-01T05:49:12.706Z,6.00
2023-04-01T05:51:40.638Z,6.43
2023-04-01T05:54:08.575Z,5.25
2023-04-01T05:56:36.449Z,21.73
2023-04-01T05:59:04.520Z,5.00
2023-04-01T06:01:32.687Z,5.93
2023-04-01T06:04:02.128Z,4.20
2023-04-01T06:06:32.003Z,4.45
2023-04-01T06:09:04.249Z,8.80
2023-04-01T06:11:39.309Z,6.30
2023-04-01T06:14:19.988Z,5.30
2023-04-01T06:17:03.333Z,4.78
2023-04-01T06:19:42.311Z,3.95
2023-04-01T06:22:39.832Z,3.47
2023-04-01T06:25:37.878Z,7.80
2023-04-01T06:28:34.013Z,3.53
2023-04-01T06:31:12.849Z,6.63
2023-04-01T06:33:56.040Z,4.45
2023-04-01T06:36:41.317Z,8.43
2023-04-01T06:39:37.827Z,5.03
2023-04-01T06:42:27.789Z,5.57
2023-04-01T06:45:08.981Z,4.10
2023-04-01T06:47:49.180Z,7.82
2023-04-01T06:50:25.129Z,4.10
2023-04-01T06:53:02.866Z,5.47
2023-04-01T06:55:39.035Z,5.22
2023-04-01T06:58:12.291Z,4.32
2023-04-01T07:00:45.544Z,5.60
2023-04-01T07:03:22.494Z,5.38
2023-04-01T07:05:51.585Z,5.05
2023-04-01T07:08:25.519Z,4.40
2023-04-01T07:10:57.919Z,3.38
2023-04-01T07:13:29.470Z,4.18
2023-04-01T07:16:04.052Z,5.00
2023-04-01T07:18:39.414Z,10.23
2023-04-01T07:21:12.697Z,6.95
2023-04-01T07:23:47.079Z,9.65
2023-04-01T07:26:19.944Z,5.57
2023-04-01T07:28:47.951Z,6.82
2023-04-01T07:31:24.499Z,4.03
2023-04-01T07:34:01.448Z,4.50
2023-04-01T07:36:38.187Z,3.75
2023-04-01T07:39:20.653Z,6.75
2023-04-01T07:41:58.330Z,5.18
2023-04-01T07:44:37.210Z,7.57
2023-04-01T07:47:19.455Z,8.60
2023-04-01T07:49:59.518Z,5.15
2023-04-01T07:52:36.610Z,5.63
2023-04-01T07:55:12.434Z,6.38
2023-04-01T07:57:50.036Z,6.00
2023-04-01T08:00:22.476Z,7.50
2023-04-01T08:03:15.080Z,4.53
2023-04-01T08:05:52.598Z,7.32
2023-04-01T08:08:27.220Z,4.90
2023-04-01T08:11:06.960Z,7.63
2023-04-01T08:13:42.194Z,5.85
2023-04-01T08:16:17.993Z,5.93
2023-04-01T08:18:54.562Z,9.27
2023-04-01T08:21:25.800Z,7.28
2023-04-01T08:23:56.497Z,5.57
2023-04-01T08:26:37.173Z,5.85
2023-04-01T08:29:12.197Z,5.28
2023-04-01T08:31:45.686Z,4.18
2023-04-01T08:34:19.503Z,4.85
2023-04-01T08:36:54.634Z,5.30
2023-04-01T08:39:31.916Z,9.27
2023-04-01T08:42:34.142Z,5.88
2023-04-01T08:45:28.243Z,5.93
2023-04-01T08:48:18.459Z,4.10
2023-04-01T08:51:20.817Z,7.50
2023-04-01T08:54:16.163Z,6.45
2023-04-01T08:56:54.816Z,5.97
2023-04-01T08:59:49.869Z,3.70
2023-04-01T09:02:52.302Z,5.60
2023-04-01T09:05:55.782Z,6.90
2023-04-01T09:08:35.317Z,2.95
2023-04-01T09:11:10.788Z,2.88
2023-04-01T09:13:52.508Z,7.45
2023-04-01T09:16:30.149Z,4.57
2023-04-01T09:19:35.756Z,5.35
2023-04-01T09:22:27.368Z,3.53
2023-04-01T09:25:17.679Z,4.50
2023-04-01T09:27:54.075Z,7.22
2023-04-01T09:30:44.922Z,4.32
2023-04-01T09:33:48.730Z,3.00
2023-04-01T09:36:40.374Z,5.05
2023-04-01T09:39:26.453Z,3.80
2023-04-01T09:42:09.096Z,4.47
2023-04-01T09:44:39.593Z,5.65
2023-04-01T09:47:23.076Z,3.72
2023-04-01T09:50:13.031Z,3.50
2023-04-01T09:52:49.557Z,4.05
2023-04-01T09:55:45.103Z,4.13
2023-04-01T09:58:48.550Z,4.85
2023-04-01T10:01:43.179Z,3.67
2023-04-01T10:04:54.460Z,6.65
2023-04-01T10:07:53.636Z,4.35
2023-04-01T10:10:57.351Z,3.80
2023-04-01T10:13:58.134Z,5.30
2023-04-01T10:17:02.607Z,3.08
2023-04-01T10:20:03.421Z,5.88
2023-04-01T10:23:01.439Z,6.25
2023-04-01T10:25:50.936Z,3.38
2023-04-01T10:29:03.933Z,2.97
2023-04-01T10:32:09.896Z,5.90
2023-04-01T10:35:25.759Z,5.28
2023-04-01T10:38:35.040Z,3.92
2023-04-01T10:41:35.089Z,4.07
2023-04-01T10:45:02.915Z,2.72
2023-04-01T10:48:10.227Z,2.65
2023-04-01T10:51:25.537Z,3.10
2023-04-01T10:54:22.950Z,4.88
2023-04-01T10:56:59.647Z,6.15
2023-04-01T11:00:21.033Z,5.30
2023-04-01T11:03:45.901Z,3.30
2023-04-01T11:06:57.918Z,3.03
2023-04-01T11:09:59.110Z,5.28
2023-04-01T11:13:02.390Z,6.22
2023-04-01T11:16:03.337Z,7.40
2023-04-01T11:19:05.801Z,5.20
2023-04-01T11:21:54.641Z,5.88
2023-04-01T11:24:56.032Z,3.67
2023-04-01T11:27:44.863Z,7.15
2023-04-01T11:30:23.140Z,6.70
2023-04-01T11:32:56.945Z,2.83
2023-04-01T11:35:45.146Z,4.38
2023-04-01T11:38:26.729Z,7.25
2023-04-01T11:41:02.744Z,3.08
2023-04-01T11:43:36.801Z,3.28
2023-04-01T11:46:12.553Z,5.82
2023-04-01T11:48:55.397Z,2.90
2023-04-01T11:51:56.735Z,4.15
2023-04-01T11:54:43.828Z,3.30
2023-04-01T11:57:32.586Z,3.47
2023-04-01T12:00:31.071Z,1.53
2023-04-01T12:03:20.311Z,3.43
2023-04-01T12:05:54.007Z,3.43
2023-04-01T12:08:33.867Z,2.30
2023-04-01T12:11:07.449Z,5.63
2023-04-01T12:13:45.451Z,3.43
2023-04-01T12:16:33.053Z,2.70
2023-04-01T12:19:09.483Z,5.33
2023-04-01T12:21:39.667Z,6.03
2023-04-01T12:24:48.460Z,4.93
2023-04-01T12:27:29.728Z,3.67
2023-04-01T12:30:29.280Z,3.70
2023-04-01T12:33:15.793Z,5.97
2023-04-01T12:35:57.604Z,4.85
2023-04-01T12:38:38.158Z,7.25
2023-04-01T12:41:12.230Z,3.10
2023-04-01T12:44:25.990Z,6.45
2023-04-01T12:47:11.997Z,2.60
2023-04-01T12:49:58.932Z,3.53
2023-04-01T12:52:45.196Z,4.10
2023-04-01T12:55:38.454Z,2.67
2023-04-01T12:58:26.831Z,4.03
2023-04-01T13:01:18.194Z,3.25
2023-04-01T13:04:05.233Z,3.53
2023-04-01T13:06:47.255Z,6.60
2023-04-01T13:09:27.186Z,5.90
2023-04-01T13:12:12.957Z,2.53
2023-04-01T13:15:08.074Z,4.03
2023-04-01T13:17:44.154Z,3.88
2023-04-01T13:20:19.222Z,2.17
2023-04-01T13:23:02.540Z,3.83
2023-04-01T13:25:39.029Z,4.55
2023-04-01T13:28:16.141Z,3.03
2023-04-01T13:30:51.954Z,2.83
2023-04-01T13:33:30.687Z,3.90
2023-04-01T13:36:10.094Z,2.92
2023-04-01T13:39:08.001Z,5.97
2023-04-01T13:41:53.680Z,4.97
2023-04-01T13:44:29.616Z,2.95
2023-04-01T13:47:14.369Z,4.43
2023-04-01T13:50:01.689Z,4.03
2023-04-01T13:52:48.605Z,2.92
2023-04-01T13:55:45.662Z,2.85
2023-04-01T13:58:26.220Z,2.78
2023-04-01T14:01:03.451Z,2.90
2023-04-01T14:03:46.647Z,2.00
2023-04-01T14:06:21.667Z,3.72
2023-04-01T14:09:05.885Z,4.07
2023-04-01T14:11:41.580Z,3.30
2023-04-01T14:14:23.078Z,5.05
2023-04-01T14:17:32.354Z,5.10
2023-04-01T14:20:42.814Z,5.35
2023-04-01T14:23:26.931Z,4.22
2023-04-01T14:26:16.317Z,6.07
2023-04-01T14:28:55.944Z,3.33
2023-04-01T14:31:36.816Z,3.78
2023-04-01T14:34:18.993Z,3.15
2023-04-01T14:37:13.821Z,3.92
2023-04-01T14:40:15.195Z,4.97
2023-04-01T14:43:06.077Z,7.68
2023-04-01T14:46:07.305Z,20.33
2023-04-01T14:48:38.554Z,3.17
2023-04-01T14:51:15.601Z,3.35
2023-04-01T14:53:54.384Z,4.82
2023-04-01T14:56:38.735Z,4.18
2023-04-01T14:59:11.168Z,3.00
2023-04-01T15:01:49.408Z,3.40
2023-04-01T15:04:44.400Z,2.88
2023-04-01T15:07:27.229Z,2.47
2023-04-01T15:10:06.804Z,2.47
2023-04-01T15:12:49.843Z,5.32
2023-04-01T15:15:34.045Z,6.15
2023-04-01T15:18:11.479Z,3.85
2023-04-01T15:21:18.963Z,5.15
2023-04-01T15:24:08.894Z,4.13
2023-04-01T15:27:09.572Z,2.50
2023-04-01T15:30:12.151Z,2.40
2023-04-01T15:32:51.887Z,2.20
2023-04-01T15:35:37.483Z,1.63
2023-04-01T15:38:13.500Z,4.18
2023-04-01T15:40:49.824Z,3.40
2023-04-01T15:43:30.399Z,3.83
2023-04-01T15:46:11.103Z,3.85
2023-04-01T15:48:59.483Z,3.08
2023-04-01T15:54:40.674Z,1.08
2023-04-01T15:57:19.624Z,1.30
2023-04-01T16:00:11.849Z,1.47
2023-04-01T16:02:48.795Z,1.60
2023-04-01T16:05:30.168Z,2.07
2023-04-01T16:08:12.959Z,4.30
2023-04-01T16:10:59.090Z,2.53
2023-04-01T16:13:37.425Z,2.57
2023-04-01T16:16:16.520Z,2.47
2023-04-01T16:19:00.467Z,2.50
2023-04-01T16:21:39.536Z,4.87
2023-04-01T16:24:18.056Z,3.60
2023-04-01T16:26:54.666Z,3.33
2023-04-01T16:29:34.939Z,2.33
2023-04-01T16:32:22.921Z,3.00
2023-04-01T16:35:04.239Z,2.63
2023-04-01T16:37:44.652Z,3.67
2023-04-01T16:40:25.645Z,2.80
2023-04-01T16:42:58.139Z,1.80
2023-04-01T16:45:35.308Z,2.40
2023-04-01T16:48:12.507Z,1.67
2023-04-01T16:50:55.397Z,2.27
2023-04-01T16:53:34.390Z,2.00
2023-04-01T16:56:13.412Z,1.97
2023-04-01T16:58:50.594Z,2.07
2023-04-01T17:01:24.391Z,1.90
2023-04-01T17:03:59.592Z,1.33
2023-04-01T17:06:36.803Z,1.57
2023-04-01T17:09:21.039Z,1.20
2023-04-01T17:11:57.770Z,1.00
2023-04-01T17:14:35.261Z,1.00
2023-04-01T17:17:15.661Z,1.10
2023-04-01T17:20:05.109Z,1.20
2023-04-01T17:22:40.350Z,1.00
2023-04-01T17:25:23.297Z,1.30
2023-04-01T17:27:58.289Z,1.00
2023-04-01T17:30:36.737Z,1.20
2023-04-01T17:33:19.520Z,1.07
2023-04-01T17:35:59.465Z,0.93
2023-04-01T17:38:43.944Z,1.13
2023-04-01T17:41:21.770Z,1.43
2023-04-01T17:43:59.304Z,1.17
2023-04-01T17:46:43.141Z,1.30
2023-04-01T17:49:26.419Z,1.30
2023-04-01T17:52:00.502Z,1.40
2023-04-01T17:54:38.284Z,1.60
2023-04-01T17:57:30.821Z,1.67
2023-04-01T18:00:04.942Z,1.87
2023-04-01T18:02:48.845Z,2.83
2023-04-01T18:05:32.853Z,2.77
2023-04-01T18:08:14.913Z,3.07
2023-04-01T18:10:58.906Z,2.97
2023-04-01T18:14:10.042Z,2.13
2023-04-01T18:16:53.989Z,2.60
2023-04-01T18:19:33.193Z,1.90
2023-04-01T18:22:17.920Z,2.20
2023-04-01T18:24:56.565Z,2.00
2023-04-01T18:27:31.149Z,2.20
2023-04-01T18:30:08.934Z,2.33
2023-04-01T18:32:41.950Z,2.47
2023-04-01T18:35:23.899Z,2.10
2023-04-01T18:37:58.606Z,1.80
2023-04-01T18:40:32.810Z,1.60
2023-04-01T18:43:12.620Z,3.20
2023-04-01T18:45:48.097Z,2.00
2023-04-01T18:48:44.925Z,2.20
2023-04-01T18:51:18.885Z,1.60
2023-04-01T18:53:55.369Z,2.30
2023-04-01T18:56:30.143Z,7.13
2023-04-01T18:59:05.950Z,1.77
2023-04-01T19:01:41.761Z,1.90
2023-04-01T19:04:21.707Z,3.23
2023-04-01T19:06:53.667Z,5.13
2023-04-01T19:09:25.944Z,6.00
2023-04-01T19:12:27.808Z,2.77
2023-04-01T19:15:11.310Z,2.10
2023-04-01T19:17:51.861Z,2.23
2023-04-01T19:20:27.995Z,1.60
2023-04-01T19:23:29.271Z,1.47
2023-04-01T19:25:59.102Z,1.20
2023-04-01T19:28:41.134Z,0.80
2023-04-01T19:31:24.726Z,1.53
2023-04-01T19:34:04.127Z,0.97
2023-04-01T19:36:42.691Z,0.97
2023-04-01T19:39:30.782Z,0.83
2023-04-01T19:42:06.056Z,0.90
2023-04-01T19:44:44.518Z,0.80
2023-04-01T19:47:23.955Z,1.40
2023-04-01T19:50:03.036Z,1.00
2023-04-01T19:52:35.771Z,1.00
2023-04-01T19:55:16.916Z,1.50
2023-04-01T19:57:51.020Z,2.17
2023-04-01T20:00:27.414Z,1.70
2023-04-01T20:03:04.188Z,1.50
2023-04-01T20:05:43.079Z,1.37
2023-04-01T20:08:19.379Z,1.83
2023-04-01T20:10:58.705Z,1.20
2023-04-01T20:13:35.437Z,1.60
2023-04-01T20:16:06.768Z,1.67
2023-04-01T20:18:43.722Z,1.40
2023-04-01T20:21:23.565Z,3.10
2023-04-01T20:23:56.959Z,1.67
2023-04-01T20:26:31.560Z,3.87
2023-04-01T20:29:14.385Z,1.93
2023-04-01T20:31:46.010Z,1.97
2023-04-01T20:34:25.350Z,1.60
2023-04-01T20:37:08.906Z,1.40
2023-04-01T20:39:49.436Z,1.30
2023-04-01T20:42:47.001Z,1.20
2023-04-01T20:45:35.368Z,1.60
2023-04-01T20:48:23.489Z,1.23
2023-04-01T20:50:54.399Z,2.00
2023-04-01T20:53:30.689Z,1.30
2023-04-01T20:56:16.918Z,2.27
2023-04-01T20:58:57.295Z,1.97
2023-04-01T21:01:37.586Z,1.33
2023-04-01T21:04:21.652Z,1.10
2023-04-01T21:07:13.514Z,1.40
2023-04-01T21:09:53.327Z,1.20
2023-04-01T21:12:33.095Z,1.00
2023-04-01T21:15:25.276Z,1.10
2023-04-01T21:18:02.721Z,0.83
2023-04-01T21:20:45.139Z,1.00
2023-04-01T21:23:32.286Z,1.10
2023-04-01T21:26:33.357Z,0.67
2023-04-01T21:29:28.087Z,1.03
2023-04-01T21:32:06.080Z,2.93
2023-04-01T21:34:44.407Z,1.10
2023-04-01T21:37:35.640Z,1.33
2023-04-01T21:40:19.625Z,1.73
2023-04-01T21:42:55.891Z,1.53
2023-04-01T21:45:40.048Z,1.13
2023-04-01T21:48:55.027Z,1.07
2023-04-01T21:51:55.881Z,1.27
2023-04-01T21:54:52.903Z,1.30
2023-04-01T21:57:52.698Z,2.97
2023-04-01T22:00:23.471Z,1.30
2023-04-01T22:03:37.638Z,0.90
2023-04-01T22:06:15.961Z,0.90
2023-04-01T22:09:05.408Z,0.80
2023-04-01T22:11:50.557Z,2.27
2023-04-01T22:14:28.212Z,1.00
2023-04-01T22:17:04.227Z,1.13
2023-04-01T22:19:42.010Z,1.10
2023-04-01T22:22:20.879Z,1.10
2023-04-01T22:25:01.815Z,0.80
2023-04-01T22:27:35.952Z,1.20
2023-04-01T22:30:19.646Z,0.87
2023-04-01T22:32:51.036Z,0.87
2023-04-01T22:35:28.261Z,1.20
2023-04-01T22:38:04.347Z,2.77
2023-04-01T22:40:41.875Z,4.83
2023-04-01T22:43:13.786Z,5.13
2023-04-01T22:46:31.217Z,3.80
2023-04-01T22:49:06.262Z,3.07
2023-04-01T22:51:45.843Z,3.10
2023-04-01T22:54:22.019Z,2.30
2023-04-01T22:56:55.201Z,1.40
2023-04-01T22:59:29.791Z,1.37
2023-04-01T23:02:01.979Z,2.40
2023-04-01T23:04:35.238Z,1.43
2023-04-01T23:07:17.528Z,1.87
2023-04-01T23:09:47.142Z,1.20
2023-04-01T23:12:17.283Z,1.80
2023-04-01T23:14:50.953Z,2.00
2023-04-01T23:17:44.001Z,1.10
2023-04-01T23:20:25.694Z,1.60
2023-04-01T23:23:04.587Z,1.20
2023-04-01T23:25:43.157Z,1.03
2023-04-01T23:28:36.204Z,1.00
2023-04-01T23:31:04.343Z,1.47
2023-04-01T23:33:33.554Z,1.70
2023-04-01T23:36:07.089Z,0.83
2023-04-01T23:38:37.458Z,1.40
2023-04-01T23:41:08.462Z,0.90
2023-04-01T23:43:40.562Z,0.53
2023-04-01T23:46:09.812Z,0.60
2023-04-01T23:48:41.032Z,0.80
2023-04-01T23:51:17.264Z,0.70
2023-04-01T23:53:48.217Z,0.80
2023-04-01T23:56:22.076Z,0.90
2023-04-01T23:58:57.688Z,0.43
